Terminal Aerodrome Forecast
Issued by NWS

Current Version | Previous Version | Text Only | Print | Product List | Glossary Off
Versions: 1 2 3 4 5 6 7 8 9 10 11 12 13 14 15 16 17 18 19 20 21 22 23 24 25 26 27 28 29 30 31 32 33 34

577
FTUS41 KRNK 222320
TAFLWB
TAF
KLWB 222320Z 2300/2324 VRB03KT P6SM VCSH BKN050 BKN080
      TEMPO 2300/2302 5SM -SHRA OVC040
     FM230700 00000KT 2SM BR BKN035
     FM231300 00000KT P6SM BKN008
     FM231500 33004KT P6SM BKN025
     FM231800 33005KT P6SM BKN040=

USA.gov is the U.S. government's official web portal to all federal, state and local government web resources and services.